Aérodrome :
LOGIN :

S'inscrire | Disclaimer

   EN    FR    IT 

 










Légende :    VFR   VFR Marginal   IFR   IFR Intensif   IFR Très Intensif
Visi : 
Plafond : 
>= 8 km
>= 3000ft
5 à 8 km
1000 à 3000 ft
1500m à 5 km
500 à 1000 ft
800 à 1500m
200 à 500 ft
< 800m
< 200 ft
Symboles :   Orages  Brouillard  Fortes neiges  Fortes précipitations  Vent > 20 kt
SIGMETs :   Divers  Orages  Givrage  Turbulence  Onde Orograph.  Cendres Volcan.







- Altitude de l'aérodrome : 160 ft
- Code IATA : FMO


EDDG - Münster Osnabrück Int.

DERNIER METAR :
  • 210550Z 18005KT CAVOK 04/02 Q1024 NOSIG

METARs EXPIRÉS :
  • 210520Z 19005KT CAVOK 05/03 Q1024 NOSIG
  • 210450Z 19005KT 160V220 CAVOK 05/02 Q1024 NOSIG
  • 210420Z 19005KT 160V220 CAVOK 04/02 Q1024 NOSIG
  • 210350Z 19004KT 160V220 CAVOK 05/03 Q1024 NOSIG
  • 210320Z 21005KT CAVOK 06/03 Q1024 NOSIG

TAF TAF EDDG
Valide du 21 à 06h jusqu'au 22 à 06h UTC


210500Z 2106/2206 19005KT 9999 FEW040
BECMG 2110/2113 25008KT
BECMG 2115/2118 BKN013
TEMPO 2118/2206 4000 -RA BR BKN006
Pas de NOTAMs connus pour ce terrain.



MET'MAP, la Météo Aéronautique d'un coup d'oeil ! - Copyright ORBIFLY Décembre 2007 - Disclaimer

ORBIFLY MET'MAP TEAM :

Programmation & Développement : Alexandra Zaïnal
Conception & Développement : Baudouin d'Aumeries
Co-Programmation & Développement : Marc-Olivier Méhu
Soutien technique & logistique : Manuel Goepfert

Contact : metmap@orbifly.com




SOURCES & CREDITS :

   NOAA